Time;durP1;ratioP1;P1;durP2;ratioP2;P2;SDS_P1;SDS_P2;PMS_P1;PMS_P2;Temp;Humidity;BMP_temperature;BMP_pressure;BME280_temperature;BME280_humidity;BME280_pressure;Samples;Min_cycle;Max_cycle;Signal;HPM_P1;HPM_P2
2022/12/10 00:01:11;;;;;;;4.43;3.25;;;;;;;-0.08;96.52;100980.34;5079735;27;101013;-31
2022/12/10 00:03:37;;;;;;;9.67;4.63;;;;;;;-0.10;96.96;100973.28;5098787;27;98491;-32
2022/12/10 00:06:06;;;;;;;14.80;7.70;;;;;;;-0.14;96.28;100980.44;5079812;27;96642;-31
2022/12/10 00:08:32;;;;;;;8.10;3.75;;;;;;;-0.17;96.56;100974.28;5080225;27;96807;-31
2022/12/10 00:10:59;;;;;;;5.45;3.55;;;;;;;-0.14;96.68;100976.88;5098685;27;97930;-31
2022/12/10 00:13:24;;;;;;;4.22;3.78;;;;;;;-0.07;96.76;100982.13;5098495;27;99658;-31
2022/12/10 00:15:49;;;;;;;3.60;3.08;;;;;;;-0.06;96.48;100978.53;5098949;27;96715;-31
2022/12/10 00:18:15;;;;;;;6.55;3.80;;;;;;;-0.09;96.15;100980.38;5098962;27;96756;-32
2022/12/10 00:20:40;;;;;;;6.40;4.60;;;;;;;-0.16;96.32;100979.59;5098232;27;100301;-31
2022/12/10 00:23:05;;;;;;;9.73;4.18;;;;;;;-0.17;96.49;100979.59;5098144;27;98683;-33
2022/12/10 00:25:34;;;;;;;10.38;5.57;;;;;;;-0.24;96.61;100981.47;5098839;27;96651;-32
2022/12/10 00:27:59;;;;;;;4.45;3.60;;;;;;;-0.19;96.70;100976.06;5098948;27;96796;-32
2022/12/10 00:30:24;;;;;;;5.03;3.70;;;;;;;-0.16;96.71;100965.41;5097718;27;97796;-31
2022/12/10 00:32:50;;;;;;;5.78;2.50;;;;;;;-0.11;97.02;100979.53;5098253;27;97916;-31
2022/12/10 00:35:15;;;;;;;10.45;3.28;;;;;;;-0.10;96.82;100976.81;5098548;27;96677;-31
2022/12/10 00:37:41;;;;;;;3.90;2.30;;;;;;;-0.15;96.56;100981.34;5098693;27;96736;-31
2022/12/10 00:40:07;;;;;;;2.47;1.75;;;;;;;-0.08;96.93;100982.13;5098176;27;97067;-31
2022/12/10 00:42:32;;;;;;;5.85;3.00;;;;;;;-0.07;96.65;100984.78;5098165;27;97263;-32
2022/12/10 00:44:57;;;;;;;9.13;3.38;;;;;;;-0.09;96.18;100980.38;5098361;27;96567;-31
2022/12/10 00:47:23;;;;;;;3.88;2.17;;;;;;;-0.13;96.17;100979.53;5099105;27;96769;-31
2022/12/10 00:49:48;;;;;;;10.02;4.55;;;;;;;-0.10;96.48;100992.78;5098107;27;97860;-32
2022/12/10 00:52:13;;;;;;;5.43;3.55;;;;;;;-0.10;96.23;100981.25;5097710;27;103578;-31
2022/12/10 00:54:39;;;;;;;6.40;3.40;;;;;;;-0.11;96.39;100982.19;5097881;27;96591;-32
2022/12/10 00:57:04;;;;;;;6.25;4.10;;;;;;;-0.09;96.19;100980.38;5098060;27;96865;-32
2022/12/10 00:59:29;;;;;;;7.32;5.38;;;;;;;-0.11;96.12;100985.72;5096166;27;98770;-31
2022/12/10 01:01:55;;;;;;;3.97;2.60;;;;;;;-0.11;96.24;100985.72;5097716;27;98100;-30
2022/12/10 01:04:20;;;;;;;3.30;2.25;;;;;;;-0.11;96.37;100983.06;5098037;27;96514;-31
2022/12/10 01:06:47;;;;;;;7.13;3.13;;;;;;;-0.05;96.25;100984.72;5098190;27;96805;-31
2022/12/10 01:09:15;;;;;;;7.35;3.92;;;;;;;-0.04;96.34;100995.38;5097612;27;97857;-32
2022/12/10 01:11:42;;;;;;;3.50;2.00;;;;;;;-0.07;96.23;100997.19;5079322;27;101085;-31
2022/12/10 01:14:10;;;;;;;5.60;3.38;;;;;;;-0.04;96.44;100999.81;5097711;27;96678;-31
2022/12/10 01:16:36;;;;;;;14.93;3.30;;;;;;;-0.08;96.26;101001.63;5079303;27;96704;-31
2022/12/10 01:19:03;;;;;;;7.35;5.20;;;;;;;-0.11;96.10;101004.34;5096855;27;98405;-30
2022/12/10 01:21:30;;;;;;;3.25;2.58;;;;;;;-0.11;96.10;101004.34;5078638;27;101118;-31
2022/12/10 01:23:56;;;;;;;11.23;3.72;;;;;;;-0.07;96.52;100997.19;5078614;27;96618;-32
2022/12/10 01:26:25;;;;;;;4.80;2.53;;;;;;;-0.07;96.61;100992.75;5079005;27;96720;-32
2022/12/10 01:28:52;;;;;;;6.57;3.78;;;;;;;-0.05;96.66;101000.69;5097087;27;97876;-31
2022/12/10 01:31:27;;;;;;;10.32;5.57;;;;;;;-0.04;96.60;101007.81;5097080;27;99041;-31
2022/12/10 01:33:52;;;;;;;6.45;3.55;;;;;;;-0.05;96.57;101008.69;5079034;27;96763;-31
2022/12/10 01:36:21;;;;;;;8.23;5.45;;;;;;;-0.05;96.33;101011.34;5098031;27;96744;-31
2022/12/10 01:38:47;;;;;;;7.47;3.60;;;;;;;-0.10;96.19;101011.41;5078514;27;101212;-31
2022/12/10 01:41:19;;;;;;;4.43;3.25;;;;;;;-0.17;96.69;101009.75;5078114;27;100846;-31
2022/12/10 01:43:56;;;;;;;5.15;2.92;;;;;;;-0.11;96.59;101017.66;5096843;27;96598;-31
2022/12/10 01:46:23;;;;;;;8.07;4.03;;;;;;;-0.11;96.71;101016.78;5097163;27;97135;-32
2022/12/10 01:48:50;;;;;;;7.43;3.88;;;;;;;-0.10;96.74;101016.75;5078228;27;100832;-31
2022/12/10 01:51:16;;;;;;;3.63;3.28;;;;;;;-0.12;96.66;101026.56;5078400;27;101049;-31
2022/12/10 01:53:44;;;;;;;7.18;4.88;;;;;;;-0.15;96.45;101031.03;5078367;27;96744;-32
2022/12/10 01:56:10;;;;;;;6.22;3.85;;;;;;;-0.19;96.61;101029.31;5078530;27;96899;-32
2022/12/10 01:58:37;;;;;;;1.67;1.48;;;;;;;-0.18;96.69;101041.75;5078111;27;101272;-30
2022/12/10 02:01:10;;;;;;;3.13;1.75;;;;;;;-0.15;97.00;101039.03;5097149;27;98014;-31
2022/12/10 02:03:44;;;;;;;2.55;1.90;;;;;;;-0.09;97.17;101041.63;5078583;27;96606;-31
2022/12/10 02:06:24;;;;;;;2.95;1.48;;;;;;;-0.08;96.96;101032.72;5097273;27;96524;-31
2022/12/10 02:09:02;;;;;;;2.38;1.38;;;;;;;-0.02;96.78;101033.50;5077770;27;100758;-33
2022/12/10 02:11:39;;;;;;;8.98;2.97;;;;;;;0.04;96.89;101034.31;5077826;27;100702;-31
2022/12/10 02:14:37;;;;;;;4.70;2.38;;;;;;;0.07;96.55;101037.81;5097052;27;96425;-32
2022/12/10 02:17:26;;;;;;;7.13;3.90;;;;;;;-0.05;96.19;101033.56;5064434;27;96884;-32
2022/12/10 02:20:13;;;;;;;8.32;4.82;;;;;;;-0.09;96.43;101039.81;5095604;27;98083;-31
2022/12/10 02:23:26;;;;;;;9.68;4.22;;;;;;;-0.20;96.50;101038.22;5077081;27;100983;-31
2022/12/10 02:26:00;;;;;;;3.55;2.63;;;;;;;-0.29;96.79;101034.75;5096673;27;96498;-31
2022/12/10 02:28:50;;;;;;;1.52;1.02;;;;;;;-0.22;97.06;101035.56;5078630;27;96765;-31
2022/12/10 02:31:20;;;;;;;1.27;1.20;;;;;;;-0.23;97.27;101033.81;5096368;27;98070;-31
2022/12/10 02:33:51;;;;;;;6.63;2.75;;;;;;;-0.22;97.21;101035.56;5077870;27;103265;-32
2022/12/10 02:36:18;;;;;;;3.95;3.03;;;;;;;-0.23;97.12;101040.00;5077377;27;96613;-31
2022/12/10 02:38:44;;;;;;;5.38;4.32;;;;;;;-0.26;97.03;101032.09;5077947;27;96901;-32
2022/12/10 02:41:22;;;;;;;7.22;5.18;;;;;;;-0.26;97.18;101028.56;5096476;27;97985;-31
2022/12/10 02:43:51;;;;;;;7.63;3.05;;;;;;;-0.22;97.10;101036.44;5077491;27;101232;-31
2022/12/10 02:46:17;;;;;;;7.38;3.45;;;;;;;-0.25;97.13;101027.63;5096285;27;96567;-32
2022/12/10 02:48:43;;;;;;;3.05;1.67;;;;;;;-0.25;97.05;101027.63;5077807;27;96790;-31
2022/12/10 02:51:09;;;;;;;4.30;2.08;;;;;;;-0.16;97.68;101034.63;5077419;27;101062;-32
2022/12/10 02:53:41;;;;;;;3.22;1.85;;;;;;;-0.15;97.40;101031.03;5096511;27;98011;-31
2022/12/10 02:56:33;;;;;;;3.17;1.60;;;;;;;-0.10;97.70;101035.38;5077678;27;96847;-31
2022/12/10 02:59:16;;;;;;;5.72;3.05;;;;;;;-0.14;97.52;101038.09;5096373;27;96576;-32
2022/12/10 03:02:16;;;;;;;2.45;2.00;;;;;;;-0.29;97.17;101037.44;5076759;27;100838;-32
2022/12/10 03:04:57;;;;;;;6.78;3.22;;;;;;;-0.29;97.53;101037.44;5077104;27;101106;-32
2022/12/10 03:07:33;;;;;;;7.10;4.53;;;;;;;-0.32;97.52;101034.81;5077816;27;96583;-31
2022/12/10 03:10:06;;;;;;;5.90;1.90;;;;;;;-0.33;97.69;101025.09;5077431;27;96685;-31
2022/12/10 03:12:37;;;;;;;2.38;1.80;;;;;;;-0.26;97.65;101026.75;5077191;27;101129;-31
2022/12/10 03:15:07;;;;;;;4.50;1.65;;;;;;;-0.24;97.66;101022.31;5076996;27;101361;-31
2022/12/10 03:17:35;;;;;;;8.57;3.33;;;;;;;-0.27;97.55;101024.09;5095856;27;96476;-31
2022/12/10 03:20:03;;;;;;;3.92;2.40;;;;;;;-0.32;97.79;101018.84;5096327;27;97097;-31
2022/12/10 03:22:29;;;;;;;4.97;2.03;;;;;;;-0.29;97.70;101013.47;5078404;27;102545;-32
2022/12/10 03:24:57;;;;;;;3.67;2.97;;;;;;;-0.28;98.02;101017.03;5080642;27;99435;-31
2022/12/10 03:27:24;;;;;;;4.03;2.42;;;;;;;-0.29;97.85;101013.47;5080154;27;96714;-32
2022/12/10 03:29:56;;;;;;;7.90;3.65;;;;;;;-0.31;98.22;101014.41;5080766;27;96803;-33
2022/12/10 03:32:24;;;;;;;6.45;3.78;;;;;;;-0.30;98.29;101011.72;5080478;27;101250;-31
2022/12/10 03:34:53;;;;;;;6.55;3.50;;;;;;;-0.26;98.16;101018.78;5099295;27;97337;-31
2022/12/10 03:37:19;;;;;;;14.43;4.25;;;;;;;-0.28;97.74;101012.59;5080807;27;96721;-31
2022/12/10 03:39:45;;;;;;;10.75;3.65;;;;;;;-0.29;97.80;101007.28;5080601;27;96890;-30
2022/12/10 03:42:11;;;;;;;3.95;2.42;;;;;;;-0.32;97.95;101015.31;5080479;27;100998;-31
2022/12/10 03:44:42;;;;;;;3.47;3.00;;;;;;;-0.29;98.45;101017.91;5080547;27;100959;-31
2022/12/10 03:47:12;;;;;;;3.13;2.03;;;;;;;-0.29;98.33;101021.47;5080577;27;96713;-31
2022/12/10 03:49:37;;;;;;;6.28;3.75;;;;;;;-0.26;98.34;101023.22;5080580;27;96808;-32
2022/12/10 03:52:04;;;;;;;8.93;3.05;;;;;;;-0.25;98.24;101014.31;5098404;27;97881;-30
2022/12/10 03:54:29;;;;;;;10.77;3.63;;;;;;;-0.27;98.12;101000.16;5080017;27;101355;-32
2022/12/10 03:56:54;;;;;;;2.58;1.83;;;;;;;-0.26;98.11;101016.13;5099278;27;96458;-31
2022/12/10 03:59:20;;;;;;;5.75;2.80;;;;;;;-0.25;98.12;101022.31;5099126;27;96732;-30
2022/12/10 04:01:46;;;;;;;3.60;2.67;;;;;;;-0.27;98.33;101032.09;5098935;27;98064;-31
2022/12/10 04:04:11;;;;;;;1.83;1.55;;;;;;;-0.25;98.12;101017.00;5098772;27;97870;-31
2022/12/10 04:06:41;;;;;;;3.63;2.38;;;;;;;-0.22;98.26;101030.25;5098941;27;96616;-30
2022/12/10 04:09:08;;;;;;;4.15;2.78;;;;;;;-0.24;98.33;101035.59;5080278;27;96917;-31
2022/12/10 04:11:33;;;;;;;6.78;2.72;;;;;;;-0.32;97.89;101023.28;5079911;27;101722;-31
2022/12/10 04:16:42;;;;;;;2.78;1.83;;;;;;;-0.25;98.35;101030.28;5098548;27;96609;-31
2022/12/10 04:19:11;;;;;;;7.22;3.55;;;;;;;-0.32;98.07;101033.94;5098726;27;96859;-33
2022/12/10 04:27:20;;;;;;;3.28;2.53;;;;;;;-0.45;99.16;101027.91;5065389;27;97097;-32
2022/12/10 04:29:46;;;;;;;3.10;2.47;;;;;;;-0.39;98.87;101027.81;5079939;27;96811;-31
2022/12/10 04:32:12;;;;;;;8.32;1.50;;;;;;;-0.39;99.23;101024.28;5097979;27;98862;-30
2022/12/10 04:34:37;;;;;;;16.33;4.47;;;;;;;-0.38;99.03;101034.00;5098551;27;97245;-32
2022/12/10 04:37:03;;;;;;;4.22;2.80;;;;;;;-0.36;98.98;101024.22;5098861;27;96467;-32
2022/12/10 04:39:29;;;;;;;2.28;1.88;;;;;;;-0.33;98.83;101026.88;5079880;27;96931;-31
2022/12/10 04:41:55;;;;;;;5.75;3.10;;;;;;;-0.32;98.89;101023.28;5097427;27;99238;-31
2022/12/10 04:44:20;;;;;;;4.70;3.03;;;;;;;-0.32;98.69;101029.50;5079306;27;100903;-32
2022/12/10 04:46:46;;;;;;;4.78;2.42;;;;;;;-0.28;98.93;101033.88;5098247;27;96455;-31
2022/12/10 04:49:13;;;;;;;1.85;1.00;;;;;;;-0.23;99.07;101033.81;5079742;27;96764;-32
2022/12/10 04:51:38;;;;;;;5.72;3.40;;;;;;;-0.23;98.76;101039.13;5098087;27;97295;-31
2022/12/10 04:54:04;;;;;;;4.55;2.53;;;;;;;-0.23;98.28;101032.03;5098170;27;97412;-31
2022/12/10 04:56:30;;;;;;;3.17;1.83;;;;;;;-0.27;98.16;101037.41;5079597;27;96537;-31
2022/12/10 04:58:58;;;;;;;2.63;2.13;;;;;;;-0.30;98.23;101027.69;5098604;27;96775;-31
2022/12/10 05:01:25;;;;;;;3.15;2.25;;;;;;;-0.28;98.36;101031.22;5097655;27;100424;-31
2022/12/10 05:03:51;;;;;;;2.88;1.45;;;;;;;-0.25;98.39;101039.16;5079107;27;100807;-31
2022/12/10 05:06:18;;;;;;;7.22;4.38;;;;;;;-0.23;98.43;101032.03;5079014;27;96497;-31
2022/12/10 05:08:45;;;;;;;3.58;2.85;;;;;;;-0.25;98.25;101031.16;5079448;27;96931;-31
2022/12/10 05:11:13;;;;;;;4.07;1.45;;;;;;;-0.19;98.09;101035.53;5079107;27;101100;-31
2022/12/10 05:13:39;;;;;;;2.70;1.73;;;;;;;-0.19;98.25;101040.88;5078676;27;101214;-32
2022/12/10 05:16:07;;;;;;;2.50;2.30;;;;;;;-0.19;98.56;101029.31;5079193;27;96591;-33
2022/12/10 05:18:33;;;;;;;3.58;2.58;;;;;;;-0.19;98.31;101032.88;5078941;27;96828;-33
2022/12/10 05:21:00;;;;;;;2.58;2.15;;;;;;;-0.17;98.47;101039.03;5078713;27;101083;-31
2022/12/10 05:23:29;;;;;;;3.97;2.25;;;;;;;-0.19;98.39;101035.53;5078596;27;100986;-31
2022/12/10 05:26:02;;;;;;;2.85;2.00;;;;;;;-0.21;98.10;101040.00;5078999;27;96610;-32
2022/12/10 05:28:29;;;;;;;2.40;2.20;;;;;;;-0.24;98.77;101032.94;5097799;27;96657;-31
2022/12/10 05:30:55;;;;;;;4.22;2.65;;;;;;;-0.16;98.76;101040.81;5078062;27;101498;-32
2022/12/10 05:33:20;;;;;;;3.63;1.95;;;;;;;-0.10;98.61;101043.38;5097397;27;97872;-31
2022/12/10 05:35:57;;;;;;;3.00;2.20;;;;;;;-0.17;98.39;101031.06;5097340;27;96496;-31
2022/12/10 05:38:23;;;;;;;5.82;2.85;;;;;;;-0.16;98.26;101029.28;5078983;27;96836;-31
2022/12/10 05:40:49;;;;;;;7.53;2.60;;;;;;;-0.17;98.45;101023.06;5078198;27;100778;-31
2022/12/10 05:43:15;;;;;;;4.07;1.70;;;;;;;-0.14;98.32;101031.03;5078395;27;102565;-31
2022/12/10 05:45:40;;;;;;;2.25;1.73;;;;;;;-0.10;98.46;101032.72;5096756;27;96559;-31
2022/12/10 05:48:06;;;;;;;9.15;3.33;;;;;;;-0.12;98.33;101026.56;5097576;27;96843;-31
2022/12/10 05:50:32;;;;;;;5.18;3.65;;;;;;;-0.14;98.45;101027.47;5097033;27;97909;-31
2022/12/10 05:52:58;;;;;;;2.50;1.42;;;;;;;-0.18;98.99;101028.44;5078230;27;100691;-31
2022/12/10 05:55:24;;;;;;;3.13;2.25;;;;;;;-0.20;99.20;101028.44;5096465;27;96749;-31
2022/12/10 05:57:50;;;;;;;3.70;2.28;;;;;;;-0.18;99.23;101031.97;5061508;27;96834;-31
2022/12/10 06:00:15;;;;;;;6.47;3.63;;;;;;;-0.11;98.97;101044.28;5096714;27;99524;-32
2022/12/10 06:02:40;;;;;;;5.00;2.15;;;;;;;-0.08;98.84;101043.34;5096967;27;97941;-31
2022/12/10 06:05:06;;;;;;;3.50;1.70;;;;;;;-0.06;99.10;101046.88;5097233;27;96772;-31
2022/12/10 06:07:32;;;;;;;6.20;2.95;;;;;;;-0.10;98.84;101042.50;5097193;27;96761;-31
2022/12/10 06:09:57;;;;;;;3.92;2.47;;;;;;;-0.20;99.52;101044.41;5096695;27;97860;-31
2022/12/10 06:12:22;;;;;;;11.05;3.92;;;;;;;-0.20;99.77;101047.06;5097083;27;97395;-31
2022/12/10 06:14:48;;;;;;;2.42;1.98;;;;;;;-0.23;99.80;101042.69;5097205;27;96601;-31
2022/12/10 06:17:13;;;;;;;4.53;2.97;;;;;;;-0.24;99.55;101045.34;5096993;27;96777;-32
2022/12/10 06:19:39;;;;;;;1.90;1.52;;;;;;;-0.26;99.75;101034.75;5095886;27;97864;-32
2022/12/10 06:22:04;;;;;;;5.28;3.55;;;;;;;-0.22;99.67;101049.75;5096298;27;97907;-33
2022/12/10 06:24:29;;;;;;;1.83;1.50;;;;;;;-0.24;100.00;101045.34;5096233;27;96779;-31
2022/12/10 06:26:55;;;;;;;2.70;2.22;;;;;;;-0.23;99.83;101052.44;5096887;27;96441;-31
2022/12/10 06:29:20;;;;;;;6.20;2.78;;;;;;;-0.24;99.73;101048.00;5096450;27;97558;-31
2022/12/10 06:31:45;;;;;;;3.72;1.67;;;;;;;-0.22;100.00;101062.19;5096617;27;97754;-31
2022/12/10 06:34:11;;;;;;;3.45;2.42;;;;;;;-0.23;100.00;101063.09;5096619;27;96447;-31
2022/12/10 06:36:37;;;;;;;4.18;2.35;;;;;;;-0.24;100.00;101058.66;5097065;27;96756;-30
2022/12/10 06:39:03;;;;;;;5.53;3.42;;;;;;;-0.22;100.00;101064.84;5096116;27;97869;-31
2022/12/10 06:41:28;;;;;;;6.13;3.13;;;;;;;-0.24;100.00;101063.97;5077486;27;100758;-30
2022/12/10 06:43:57;;;;;;;10.15;3.05;;;;;;;-0.21;100.00;101063.97;5096139;27;96605;-32
2022/12/10 06:46:23;;;;;;;5.70;2.78;;;;;;;-0.23;100.00;101066.63;5096334;27;96775;-31
2022/12/10 06:48:48;;;;;;;3.50;1.63;;;;;;;-0.25;100.00;101064.91;5096521;27;97511;-31
2022/12/10 06:51:14;;;;;;;5.03;3.05;;;;;;;-0.26;100.00;101076.47;5096306;27;97883;-33
2022/12/10 06:53:40;;;;;;;4.88;3.30;;;;;;;-0.26;100.00;101071.13;5096430;27;96747;-30
2022/12/10 06:56:07;;;;;;;7.18;2.95;;;;;;;-0.27;100.00;101072.88;5077726;27;96883;-33
2022/12/10 06:58:34;;;;;;;1.25;1.10;;;;;;;-0.29;100.00;101068.50;5077335;27;100821;-32
2022/12/10 07:01:04;;;;;;;1.75;1.42;;;;;;;-0.28;100.00;101072.94;5096248;27;97516;-31
2022/12/10 07:03:29;;;;;;;1.63;1.35;;;;;;;-0.31;100.00;101075.59;5096219;27;96659;-31
2022/12/10 07:05:57;;;;;;;6.85;2.53;;;;;;;-0.31;100.00;101072.94;5096260;27;96752;-33
2022/12/10 07:08:23;;;;;;;1.30;1.20;;;;;;;-0.30;100.00;101080.91;5076763;27;101277;-31
2022/12/10 07:10:48;;;;;;;4.28;2.00;;;;;;;-0.31;100.00;101078.28;5095697;27;99569;-31
2022/12/10 07:13:13;;;;;;;3.45;1.80;;;;;;;-0.28;100.00;101079.13;5096508;27;96605;-31
2022/12/10 07:15:39;;;;;;;4.18;2.67;;;;;;;-0.30;100.00;101080.03;5096132;27;96827;-31
2022/12/10 07:18:04;;;;;;;3.03;1.88;;;;;;;-0.27;100.00;101088.84;5095943;27;98373;-31
2022/12/10 07:20:30;;;;;;;3.45;2.25;;;;;;;-0.26;100.00;101090.63;5095430;27;97632;-31
2022/12/10 07:22:55;;;;;;;2.08;1.55;;;;;;;-0.28;100.00;101083.56;5095374;27;96734;-31
2022/12/10 07:25:20;;;;;;;4.38;2.42;;;;;;;-0.24;100.00;101094.16;5096605;27;96577;-32
2022/12/10 07:27:46;;;;;;;4.30;1.85;;;;;;;-0.19;100.00;101094.09;5095618;27;97907;-31
2022/12/10 07:30:11;;;;;;;3.97;2.90;;;;;;;-0.18;100.00;101093.19;5095600;27;97964;-31
2022/12/10 07:32:37;;;;;;;1.63;1.05;;;;;;;-0.22;100.00;101091.47;5095337;27;96624;-32
2022/12/10 07:35:02;;;;;;;2.63;1.73;;;;;;;-0.25;100.00;101100.38;5095993;27;96774;-33
2022/12/10 07:37:28;;;;;;;3.50;1.83;;;;;;;-0.22;100.00;101094.13;5095347;27;98312;-31
2022/12/10 07:39:53;;;;;;;3.97;2.75;;;;;;;-0.26;100.00;101101.28;5095478;27;97860;-30
2022/12/10 07:42:18;;;;;;;8.70;2.17;;;;;;;-0.25;100.00;101100.38;5096039;27;96570;-31
2022/12/10 07:44:44;;;;;;;3.45;2.30;;;;;;;-0.28;100.00;101099.53;5095684;27;96803;-31
2022/12/10 07:47:09;;;;;;;2.03;1.50;;;;;;;-0.27;100.00;101093.31;5095149;27;99423;-32
2022/12/10 07:49:34;;;;;;;5.03;3.05;;;;;;;-0.35;100.00;101095.19;5095425;27;98857;-32
2022/12/10 07:52:00;;;;;;;2.53;1.52;;;;;;;-0.33;100.00;101090.75;5095723;27;96719;-31
2022/12/10 07:54:25;;;;;;;2.33;1.67;;;;;;;-0.34;100.00;101096.94;5095736;27;96830;-31
2022/12/10 07:56:51;;;;;;;3.90;2.92;;;;;;;-0.33;100.00;101101.38;5094936;27;98077;-31
2022/12/10 07:59:16;;;;;;;3.30;2.42;;;;;;;-0.33;100.00;101101.38;5095088;27;99516;-31
2022/12/10 08:01:41;;;;;;;3.35;2.42;;;;;;;-0.38;100.00;101106.78;5095561;27;96555;-32
2022/12/10 08:04:07;;;;;;;1.63;1.05;;;;;;;-0.43;100.00;101105.91;5095269;27;96930;-31
2022/12/10 08:06:32;;;;;;;2.22;1.42;;;;;;;-0.44;100.00;101114.81;5095052;27;97346;-31
2022/12/10 08:08:59;;;;;;;5.57;3.28;;;;;;;-0.46;100.00;101122.78;5097481;27;99323;-32
2022/12/10 08:11:26;;;;;;;2.58;0.82;;;;;;;-0.48;100.00;101115.75;5080250;27;96730;-31
2022/12/10 08:13:52;;;;;;;6.70;0.93;;;;;;;-0.50;100.00;101112.22;5080749;27;96918;-31
2022/12/10 08:16:20;;;;;;;2.80;1.65;;;;;;;-0.47;100.00;101134.34;5079831;27;101190;-31
2022/12/10 08:18:46;;;;;;;5.88;3.42;;;;;;;-0.43;100.00;101129.88;5079489;27;100748;-31
2022/12/10 08:21:31;;;;;;;2.60;1.80;;;;;;;-0.44;100.00;101136.09;5079254;27;97112;-31
2022/12/10 08:23:58;;;;;;;5.18;2.70;;;;;;;-0.46;100.00;101132.56;5078924;27;96850;-31
2022/12/10 08:26:27;;;;;;;4.57;3.70;;;;;;;-0.50;100.00;101139.72;5079005;27;101394;-30
2022/12/10 08:28:55;;;;;;;5.68;2.90;;;;;;;-0.53;100.00;101142.41;5079251;27;96700;-31
2022/12/10 08:31:22;;;;;;;2.92;1.45;;;;;;;-0.49;100.00;101143.25;5076296;27;97352;-32
2022/12/10 08:33:48;;;;;;;3.72;1.95;;;;;;;-0.47;100.00;101150.31;5097600;27;96801;-32
2022/12/10 08:36:16;;;;;;;3.20;1.50;;;;;;;-0.51;100.00;101148.59;5078372;27;101068;-31
2022/12/10 08:38:43;;;;;;;5.32;1.98;;;;;;;-0.52;100.00;101154.81;5079434;27;100845;-31
2022/12/10 08:41:11;;;;;;;3.72;2.40;;;;;;;-0.56;100.00;101147.75;5079896;27;96496;-31
2022/12/10 08:43:37;;;;;;;2.38;1.98;;;;;;;-0.53;100.00;101152.16;5079627;27;97004;-31
2022/12/10 08:46:03;;;;;;;8.98;2.20;;;;;;;-0.60;100.00;101151.34;5096572;27;97918;-31
2022/12/10 08:48:28;;;;;;;6.18;1.77;;;;;;;-0.55;100.00;101161.94;5095172;27;100195;-31
2022/12/10 08:50:54;;;;;;;4.55;2.47;;;;;;;-0.53;100.00;101158.34;5096010;27;96927;-31
2022/12/10 08:53:19;;;;;;;5.70;2.17;;;;;;;-0.50;100.00;101165.41;5096335;27;97065;-31
2022/12/10 08:55:44;;;;;;;3.05;1.42;;;;;;;-0.57;100.00;101158.41;5094467;27;98051;-33
2022/12/10 08:58:10;;;;;;;1.58;1.33;;;;;;;-0.66;100.00;101167.38;5094360;27;97990;-31
2022/12/10 09:00:36;;;;;;;4.25;2.33;;;;;;;-0.64;100.00;101181.56;5095520;27;97029;-32
2022/12/10 09:03:03;;;;;;;3.72;2.33;;;;;;;-0.66;100.00;101173.56;5079068;27;96857;-32
2022/12/10 09:05:28;;;;;;;10.65;3.50;;;;;;;-0.68;100.00;101166.50;5078514;27;100944;-30
2022/12/10 09:07:54;;;;;;;4.50;2.25;;;;;;;-0.74;100.00;101158.59;5078449;27;100481;-31
2022/12/10 09:10:20;;;;;;;4.20;2.72;;;;;;;-0.79;100.00;101157.75;5097429;27;96505;-30
2022/12/10 09:12:45;;;;;;;6.03;3.75;;;;;;;-0.75;100.00;101173.66;5097894;27;96775;-30
2022/12/10 09:15:11;;;;;;;2.13;0.88;;;;;;;-0.71;100.00;101174.53;5097700;27;97454;-31
2022/12/10 09:17:38;;;;;;;3.70;2.15;;;;;;;-0.76;100.00;101176.31;5097424;27;97818;-32
2022/12/10 09:20:04;;;;;;;1.77;1.02;;;;;;;-0.77;100.00;101180.78;5077729;27;96634;-32
2022/12/10 09:22:29;;;;;;;5.47;3.53;;;;;;;-0.78;100.00;101170.16;5079002;27;96614;-30
2022/12/10 09:24:54;;;;;;;4.80;2.08;;;;;;;-0.71;100.00;101174.53;5096938;27;98871;-33
2022/12/10 09:27:20;;;;;;;2.80;2.38;;;;;;;-0.68;100.00;101166.50;5097798;27;97809;-31
2022/12/10 09:29:45;;;;;;;3.15;1.38;;;;;;;-0.72;100.00;101178.94;5097443;27;96544;-31
2022/12/10 09:32:11;;;;;;;2.28;1.65;;;;;;;-0.68;100.00;101186.00;5097672;27;96749;-31
2022/12/10 09:34:36;;;;;;;1.05;1.05;;;;;;;-0.67;100.00;101181.56;5096728;27;99595;-32
2022/12/10 09:37:02;;;;;;;4.30;2.72;;;;;;;-0.69;100.00;101186.91;5097447;27;97361;-31
2022/12/10 09:39:27;;;;;;;5.45;3.30;;;;;;;-0.64;100.00;101186.88;5097717;27;96479;-31
2022/12/10 09:42:10;;;;;;;2.42;2.20;;;;;;;-0.63;100.00;101188.63;5097580;27;96767;-31
2022/12/10 09:44:52;;;;;;;3.30;2.58;;;;;;;-0.63;100.00;101177.97;5078329;27;101128;-31
2022/12/10 09:47:18;;;;;;;6.47;2.78;;;;;;;-0.62;100.00;101189.50;5097363;27;97414;-32
2022/12/10 09:49:59;;;;;;;4.32;1.83;;;;;;;-0.50;100.00;101189.38;5097560;27;96738;-31
2022/12/10 09:52:29;;;;;;;3.10;2.42;;;;;;;-0.52;100.00;101191.19;5079011;27;96885;-33
2022/12/10 09:54:59;;;;;;;8.68;5.90;;;;;;;-0.56;100.00;101195.66;5078343;27;100871;-32
2022/12/10 09:57:33;;;;;;;9.27;3.90;;;;;;;-0.58;100.00;101200.09;5097228;27;97360;-31
2022/12/10 10:00:07;;;;;;;3.33;2.47;;;;;;;-0.61;100.00;101197.47;5078157;27;96591;-32
2022/12/10 10:02:32;;;;;;;2.83;1.05;;;;;;;-0.60;100.00;101193.91;5078472;27;96800;-30
2022/12/10 10:05:06;;;;;;;9.55;2.92;;;;;;;-0.57;100.00;101203.63;5096543;27;99783;-31
2022/12/10 10:07:36;;;;;;;1.10;0.85;;;;;;;-0.56;100.00;101203.63;5096859;27;97792;-32
2022/12/10 10:10:09;;;;;;;0.93;0.82;;;;;;;-0.59;100.00;101192.16;5078346;27;96643;-31
2022/12/10 10:12:37;;;;;;;2.75;1.38;;;;;;;-0.51;100.00;101200.91;5097017;27;96529;-31
2022/12/10 10:15:18;;;;;;;0.68;0.43;;;;;;;-0.53;100.00;101195.59;5077957;27;101177;-30
2022/12/10 10:17:46;;;;;;;6.03;2.78;;;;;;;-0.54;100.00;101201.84;5078076;27;101425;-31
2022/12/10 10:20:13;;;;;;;4.30;2.75;;;;;;;-0.51;100.00;101212.44;5078106;27;97001;-31
2022/12/10 10:22:40;;;;;;;3.03;2.25;;;;;;;-0.51;100.00;101216.88;5077312;27;96881;-31
2022/12/10 10:25:12;;;;;;;1.10;0.90;;;;;;;-0.45;100.00;101211.50;5096359;27;97350;-31
2022/12/10 10:27:37;;;;;;;1.65;1.27;;;;;;;-0.39;100.00;101218.53;5077940;27;100789;-31
2022/12/10 10:30:04;;;;;;;5.32;2.78;;;;;;;-0.41;100.00;101215.88;5096859;27;96637;-32
2022/12/10 10:32:36;;;;;;;4.72;2.88;;;;;;;-0.32;100.00;101214.91;5096318;27;96917;-31
2022/12/10 10:35:02;;;;;;;4.68;2.45;;;;;;;-0.35;100.00;101214.94;5096595;27;97508;-32
2022/12/10 10:37:47;;;;;;;2.20;1.35;;;;;;;-0.35;100.00;101214.94;5077540;27;103306;-30
2022/12/10 10:40:25;;;;;;;3.38;1.10;;;;;;;-0.40;100.00;101207.03;5095815;27;96522;-33
2022/12/10 10:42:55;;;;;;;5.18;3.22;;;;;;;-0.45;100.00;101204.41;5078104;27;96995;-31
2022/12/10 10:45:35;;;;;;;12.18;6.78;;;;;;;-0.41;100.00;101202.56;5077440;27;100863;-31
2022/12/10 10:48:12;;;;;;;0.43;0.43;;;;;;;-0.35;100.00;101207.84;5077521;27;101277;-31
2022/12/10 10:50:47;;;;;;;2.92;1.38;;;;;;;-0.39;100.00;101195.47;5077376;27;96675;-31
2022/12/10 10:53:24;;;;;;;6.85;3.53;;;;;;;-0.42;100.00;101195.50;5096240;27;97274;-31
2022/12/10 10:55:52;;;;;;;2.15;1.23;;;;;;;-0.47;100.00;101195.56;5096221;27;98043;-31
2022/12/10 10:58:22;;;;;;;5.13;2.20;;;;;;;-0.52;100.00;101186.75;5077334;27;100987;-32
2022/12/10 11:01:00;;;;;;;2.22;1.77;;;;;;;-0.51;100.00;101195.59;5077641;27;96729;-31
2022/12/10 11:03:28;;;;;;;5.80;2.83;;;;;;;-0.45;100.00;101199.09;5095914;27;96829;-30
2022/12/10 11:05:57;;;;;;;3.95;2.42;;;;;;;-0.41;100.00;101196.38;5076945;27;101323;-32
2022/12/10 11:08:25;;;;;;;3.60;1.70;;;;;;;-0.39;100.00;101202.56;5077600;27;101420;-31
2022/12/10 11:10:58;;;;;;;2.47;1.58;;;;;;;-0.40;100.00;101208.81;5077544;27;96774;-31
2022/12/10 11:13:26;;;;;;;4.43;2.17;;;;;;;-0.41;100.00;101201.69;5077547;27;96882;-31
2022/12/10 11:16:20;;;;;;;6.32;2.80;;;;;;;-0.36;100.00;101207.84;5076743;27;101439;-31
2022/12/10 11:19:02;;;;;;;1.90;1.67;;;;;;;-0.37;100.00;101198.13;5082047;27;97444;-31
2022/12/10 11:21:30;;;;;;;11.20;6.60;;;;;;;-0.37;100.00;101198.13;5095821;27;96843;-31
2022/12/10 11:23:57;;;;;;;3.58;2.95;;;;;;;-0.36;100.00;101205.19;5076678;27;96960;-31
2022/12/10 11:26:25;;;;;;;1.80;1.45;;;;;;;-0.38;100.00;101199.00;5077059;27;100956;-32
2022/12/10 11:28:56;;;;;;;5.95;3.95;;;;;;;-0.33;100.00;101200.72;5095817;27;97923;-31
2022/12/10 11:32:00;;;;;;;1.50;1.40;;;;;;;-0.31;100.00;101206.00;5096224;27;96693;-31
2022/12/10 11:34:38;;;;;;;2.88;1.63;;;;;;;-0.31;100.00;101192.72;5091244;27;96841;-31